createdAt,value
2023-08-17T00:01:08.285Z,20.99
2023-08-17T00:03:36.844Z,20.95
2023-08-17T00:06:05.254Z,20.94
2023-08-17T00:08:33.926Z,20.90
2023-08-17T00:11:01.951Z,20.88
2023-08-17T00:13:31.636Z,20.84
2023-08-17T00:15:59.635Z,20.82
2023-08-17T00:18:28.610Z,20.78
2023-08-17T00:20:57.231Z,20.75
2023-08-17T00:23:25.366Z,20.73
2023-08-17T00:25:53.743Z,20.71
2023-08-17T00:28:22.402Z,20.70
2023-08-17T00:30:52.760Z,20.67
2023-08-17T00:33:21.280Z,20.67
2023-08-17T00:35:50.447Z,20.70
2023-08-17T00:38:18.986Z,20.65
2023-08-17T00:40:47.533Z,20.63
2023-08-17T00:43:15.706Z,20.60
2023-08-17T00:45:43.921Z,20.63
2023-08-17T00:48:13.849Z,20.63
2023-08-17T00:50:42.568Z,20.59
2023-08-17T00:53:14.393Z,20.60
2023-08-17T00:55:42.930Z,20.60
2023-08-17T00:58:11.077Z,20.63
2023-08-17T01:00:39.241Z,20.61
2023-08-17T01:03:07.362Z,20.57
2023-08-17T01:05:37.501Z,20.59
2023-08-17T01:08:06.278Z,20.57
2023-08-17T01:10:43.516Z,20.55
2023-08-17T01:13:13.914Z,20.55
2023-08-17T01:15:45.194Z,20.50
2023-08-17T01:18:19.755Z,20.48
2023-08-17T01:20:50.602Z,20.47
2023-08-17T01:23:19.998Z,20.44
2023-08-17T01:25:48.436Z,20.41
2023-08-17T01:28:16.876Z,20.39
2023-08-17T01:30:49.955Z,20.37
2023-08-17T01:33:25.304Z,20.36
2023-08-17T01:35:58.107Z,20.33
2023-08-17T01:38:28.364Z,20.33
2023-08-17T01:40:57.370Z,20.30
2023-08-17T01:43:25.663Z,20.23
2023-08-17T01:45:53.898Z,20.20
2023-08-17T01:48:21.966Z,20.17
2023-08-17T01:50:50.192Z,20.16
2023-08-17T01:53:18.230Z,20.15
2023-08-17T01:55:47.849Z,20.12
2023-08-17T01:58:16.296Z,20.09
2023-08-17T02:00:44.480Z,20.09
2023-08-17T02:03:12.772Z,20.08
2023-08-17T02:05:40.866Z,20.05
2023-08-17T02:08:09.245Z,20.01
2023-08-17T02:10:37.526Z,19.98
2023-08-17T02:13:17.124Z,19.96
2023-08-17T02:15:46.451Z,19.93
2023-08-17T02:18:14.565Z,19.95
2023-08-17T02:20:42.627Z,19.92
2023-08-17T02:23:11.294Z,19.89
2023-08-17T02:25:40.403Z,19.87
2023-08-17T02:28:09.974Z,19.85
2023-08-17T02:30:38.091Z,19.81
2023-08-17T02:33:07.393Z,19.78
2023-08-17T02:35:36.073Z,19.76
2023-08-17T02:38:04.562Z,19.75
2023-08-17T02:40:32.983Z,19.76
2023-08-17T02:43:01.048Z,19.72
2023-08-17T02:45:30.512Z,19.74
2023-08-17T02:47:59.869Z,19.71
2023-08-17T02:50:28.136Z,19.68
2023-08-17T02:52:56.194Z,19.68
2023-08-17T02:55:24.394Z,19.66
2023-08-17T02:57:52.638Z,19.64
2023-08-17T03:00:21.319Z,19.59
2023-08-17T03:02:50.817Z,19.58
2023-08-17T03:05:19.160Z,19.51
2023-08-17T03:07:47.329Z,19.53
2023-08-17T03:10:15.637Z,19.54
2023-08-17T03:12:44.379Z,19.51
2023-08-17T03:15:12.581Z,19.48
2023-08-17T03:17:40.700Z,19.45
2023-08-17T03:20:11.302Z,19.43
2023-08-17T03:22:39.450Z,19.43
2023-08-17T03:25:08.754Z,19.44
2023-08-17T03:27:37.420Z,19.44
2023-08-17T03:30:06.994Z,19.43
2023-08-17T03:32:35.114Z,19.44
2023-08-17T03:35:03.419Z,19.43
2023-08-17T03:37:32.785Z,19.44
2023-08-17T03:40:01.759Z,19.44
2023-08-17T03:42:30.562Z,19.43
2023-08-17T03:44:58.648Z,19.44
2023-08-17T03:47:27.058Z,19.45
2023-08-17T03:49:55.624Z,19.44
2023-08-17T03:52:24.457Z,19.45
2023-08-17T03:54:53.961Z,19.45
2023-08-17T03:57:22.416Z,19.48
2023-08-17T03:59:51.878Z,19.48
2023-08-17T04:02:20.116Z,19.48
2023-08-17T04:04:48.164Z,19.47
2023-08-17T04:07:22.857Z,19.51
2023-08-17T04:09:51.127Z,19.51
2023-08-17T04:12:20.567Z,19.57
2023-08-17T04:14:48.629Z,19.61
2023-08-17T04:17:17.114Z,19.69
2023-08-17T04:19:45.590Z,19.78
2023-08-17T04:22:14.943Z,19.86
2023-08-17T04:24:42.970Z,19.99
2023-08-17T04:27:11.334Z,20.05
2023-08-17T04:29:41.219Z,20.12
2023-08-17T04:32:09.272Z,20.15
2023-08-17T04:34:37.771Z,20.20
2023-08-17T04:37:05.945Z,20.29
2023-08-17T04:39:34.071Z,20.41
2023-08-17T04:42:02.780Z,20.53
2023-08-17T04:44:30.995Z,20.59
2023-08-17T04:47:00.332Z,20.50
2023-08-17T04:49:28.444Z,20.36
2023-08-17T04:51:56.710Z,20.29
2023-08-17T04:54:24.989Z,20.24
2023-08-17T04:56:53.028Z,20.13
2023-08-17T04:59:21.395Z,20.08
2023-08-17T05:01:50.575Z,20.03
2023-08-17T05:04:20.194Z,19.99
2023-08-17T05:06:48.280Z,19.99
2023-08-17T05:09:16.752Z,19.95
2023-08-17T05:11:45.162Z,19.93
2023-08-17T05:14:13.805Z,19.93
2023-08-17T05:16:42.067Z,19.95
2023-08-17T05:19:10.337Z,19.93
2023-08-17T05:21:39.803Z,19.98
2023-08-17T05:24:08.452Z,20.06
2023-08-17T05:26:36.873Z,20.30
2023-08-17T05:29:06.033Z,20.48
2023-08-17T05:31:34.307Z,20.54
2023-08-17T05:34:02.760Z,20.68
2023-08-17T05:36:30.885Z,20.82
2023-08-17T05:39:01.588Z,20.96
2023-08-17T05:41:29.615Z,21.18
2023-08-17T05:43:57.764Z,21.40
2023-08-17T05:46:26.456Z,21.56
2023-08-17T05:48:54.751Z,21.58
2023-08-17T05:51:22.740Z,21.52
2023-08-17T05:53:50.958Z,21.46
2023-08-17T05:56:20.604Z,21.39
2023-08-17T05:58:48.795Z,21.25
2023-08-17T06:01:17.143Z,21.11
2023-08-17T06:03:45.648Z,20.96
2023-08-17T06:06:14.435Z,20.80
2023-08-17T06:08:45.573Z,20.68
2023-08-17T06:11:15.054Z,20.55
2023-08-17T06:13:46.041Z,20.43
2023-08-17T06:16:15.754Z,20.29
2023-08-17T06:18:44.871Z,20.09
2023-08-17T06:21:14.555Z,19.86
2023-08-17T06:23:42.827Z,19.64
2023-08-17T06:26:12.195Z,19.41
2023-08-17T06:28:40.886Z,19.06
2023-08-17T06:31:11.602Z,18.79
2023-08-17T06:33:40.884Z,18.55
2023-08-17T06:36:09.463Z,18.34
2023-08-17T06:38:37.838Z,18.20
2023-08-17T06:41:07.728Z,18.07
2023-08-17T06:43:36.289Z,17.97
2023-08-17T06:46:06.459Z,17.87
2023-08-17T06:48:36.213Z,17.80
2023-08-17T06:51:05.956Z,17.80
2023-08-17T06:53:34.292Z,17.76
2023-08-17T06:56:03.261Z,17.72
2023-08-17T06:58:31.508Z,17.63
2023-08-17T07:01:00.945Z,17.60
2023-08-17T07:03:29.144Z,17.59
2023-08-17T07:06:00.098Z,17.55
2023-08-17T07:08:28.274Z,17.55
2023-08-17T07:10:57.103Z,17.53
2023-08-17T07:13:25.538Z,17.50
2023-08-17T07:15:54.044Z,17.50
2023-08-17T07:18:22.420Z,17.50
2023-08-17T07:20:51.325Z,17.49
2023-08-17T07:23:20.790Z,17.48
2023-08-17T07:25:49.015Z,17.45
2023-08-17T07:28:17.732Z,17.41
2023-08-17T07:30:46.040Z,17.43
2023-08-17T07:33:14.517Z,17.50
2023-08-17T07:35:42.945Z,17.56
2023-08-17T07:38:15.906Z,17.58
2023-08-17T07:40:45.711Z,17.62
2023-08-17T07:43:14.352Z,17.70
2023-08-17T07:45:42.549Z,17.77
2023-08-17T07:48:11.039Z,17.90
2023-08-17T07:50:39.422Z,17.97
2023-08-17T07:53:07.691Z,17.99
2023-08-17T07:58:07.859Z,18.20
2023-08-17T08:00:36.503Z,18.21
2023-08-17T08:03:05.487Z,18.18
2023-08-17T08:05:34.168Z,18.16
2023-08-17T08:08:02.816Z,18.14
2023-08-17T08:10:31.215Z,18.16
2023-08-17T08:12:59.568Z,18.18
2023-08-17T08:15:29.606Z,18.21
2023-08-17T08:17:58.239Z,18.29
2023-08-17T08:20:26.842Z,18.38
2023-08-17T08:22:55.363Z,18.44
2023-08-17T08:25:24.702Z,18.49
2023-08-17T08:27:53.176Z,18.53
2023-08-17T08:30:22.077Z,18.62
2023-08-17T08:32:52.363Z,18.75
2023-08-17T08:35:23.164Z,18.85
2023-08-17T08:37:51.571Z,19.03
2023-08-17T08:40:21.503Z,19.10
2023-08-17T08:42:50.124Z,19.21
2023-08-17T08:45:20.926Z,19.36
2023-08-17T08:47:51.672Z,19.50
2023-08-17T08:50:23.224Z,19.61
2023-08-17T08:52:57.146Z,19.74
2023-08-17T08:55:26.285Z,19.79
2023-08-17T08:57:56.573Z,19.81
2023-08-17T09:00:27.092Z,19.89
2023-08-17T09:02:59.216Z,20.01
2023-08-17T09:05:28.730Z,20.16
2023-08-17T09:07:57.313Z,20.32
2023-08-17T09:10:27.736Z,20.47
2023-08-17T09:12:58.376Z,20.60
2023-08-17T09:15:27.422Z,20.67
2023-08-17T09:17:59.173Z,20.81
2023-08-17T09:23:20.152Z,21.02
2023-08-17T09:26:05.971Z,20.96
2023-08-17T09:31:47.802Z,21.39
2023-08-17T09:34:50.500Z,21.67
2023-08-17T14:13:49.636Z,26.05
2023-08-17T14:16:23.974Z,25.90
2023-08-17T14:22:13.516Z,25.84
2023-08-17T14:28:26.765Z,25.76
2023-08-17T14:40:02.864Z,25.69
2023-08-17T14:42:35.177Z,25.73
2023-08-17T14:45:19.403Z,25.75
2023-08-17T14:48:01.060Z,25.80
2023-08-17T14:56:00.617Z,25.80
2023-08-17T14:58:40.800Z,25.80
2023-08-17T15:01:20.703Z,25.79
2023-08-17T15:04:16.041Z,25.72
2023-08-17T15:06:55.803Z,25.73
2023-08-17T15:09:25.389Z,25.79
2023-08-17T15:11:53.400Z,25.87
2023-08-17T15:14:21.855Z,25.94
2023-08-17T15:16:52.285Z,25.97
2023-08-17T15:19:38.571Z,26.03
2023-08-17T15:22:15.016Z,26.00
2023-08-17T15:24:45.463Z,26.05
2023-08-17T15:27:13.942Z,26.16
2023-08-17T15:29:42.239Z,26.21
2023-08-17T15:32:10.937Z,26.27
2023-08-17T15:34:40.404Z,26.25
2023-08-17T15:37:09.161Z,26.17
2023-08-17T15:39:37.652Z,26.13
2023-08-17T15:42:06.428Z,26.10
2023-08-17T15:44:35.190Z,26.05
2023-08-17T15:47:03.665Z,26.04
2023-08-17T15:49:32.007Z,26.03
2023-08-17T15:52:03.786Z,26.05
2023-08-17T15:54:36.892Z,26.04
2023-08-17T15:57:06.262Z,26.01
2023-08-17T15:59:34.962Z,26.05
2023-08-17T16:02:03.505Z,26.05
2023-08-17T16:04:31.979Z,26.09
2023-08-17T16:07:02.021Z,26.14
2023-08-17T16:09:31.598Z,26.13
2023-08-17T16:12:00.119Z,26.12
2023-08-17T16:14:28.304Z,26.07
2023-08-17T16:16:57.575Z,26.03
2023-08-17T16:19:26.300Z,25.98
2023-08-17T16:21:54.527Z,25.92
2023-08-17T16:24:27.456Z,25.94
2023-08-17T16:26:56.072Z,25.90
2023-08-17T16:29:24.363Z,25.93
2023-08-17T16:32:08.262Z,25.86
2023-08-17T16:34:37.084Z,25.82
2023-08-17T16:37:05.610Z,25.82
2023-08-17T16:39:36.665Z,25.79
2023-08-17T16:42:05.008Z,25.75
2023-08-17T16:44:33.055Z,25.73
2023-08-17T16:47:01.296Z,25.72
2023-08-17T16:49:31.095Z,25.73
2023-08-17T16:52:00.322Z,25.73
2023-08-17T16:54:28.611Z,25.76
2023-08-17T16:56:58.630Z,25.72
2023-08-17T16:59:26.894Z,25.70
2023-08-17T17:01:58.617Z,25.67
2023-08-17T17:04:26.890Z,25.65
2023-08-17T17:06:55.064Z,25.61
2023-08-17T17:09:23.266Z,25.59
2023-08-17T17:11:51.490Z,25.55
2023-08-17T17:14:22.921Z,25.52
2023-08-17T17:16:53.949Z,25.49
2023-08-17T17:19:22.204Z,25.47
2023-08-17T17:21:50.214Z,25.45
2023-08-17T17:24:18.558Z,25.41
2023-08-17T17:26:46.659Z,25.39
2023-08-17T17:29:14.751Z,25.32
2023-08-17T17:31:44.222Z,25.28
2023-08-17T17:34:13.520Z,25.28
2023-08-17T17:36:41.666Z,25.22
2023-08-17T17:39:09.755Z,25.21
2023-08-17T17:41:37.735Z,25.18
2023-08-17T17:44:06.387Z,25.18
2023-08-17T17:46:34.879Z,25.15
2023-08-17T17:49:04.326Z,25.12
2023-08-17T17:51:32.452Z,25.10
2023-08-17T17:54:00.533Z,25.07
2023-08-17T17:56:42.028Z,25.02
2023-08-17T17:59:11.814Z,25.01
2023-08-17T18:01:40.254Z,24.98
2023-08-17T18:04:10.955Z,24.94
2023-08-17T18:06:39.228Z,24.91
2023-08-17T18:09:07.786Z,24.90
2023-08-17T18:11:36.328Z,24.91
2023-08-17T18:14:05.022Z,24.86
2023-08-17T18:16:33.165Z,24.86
2023-08-17T18:19:01.498Z,24.81
2023-08-17T18:21:32.072Z,24.76
2023-08-17T18:24:00.798Z,24.76
2023-08-17T18:26:29.337Z,24.76
2023-08-17T18:28:58.037Z,24.73
2023-08-17T18:31:26.455Z,24.73
2023-08-17T18:33:55.176Z,24.71
2023-08-17T18:36:23.349Z,24.67
2023-08-17T18:38:52.798Z,24.67
2023-08-17T18:41:20.817Z,24.66
2023-08-17T18:43:49.225Z,24.60
2023-08-17T18:46:17.726Z,24.56
2023-08-17T18:48:45.820Z,24.53
2023-08-17T18:51:14.480Z,24.47
2023-08-17T18:53:42.505Z,24.43
2023-08-17T18:56:11.895Z,24.36
2023-08-17T18:58:39.944Z,24.30
2023-08-17T19:01:08.337Z,24.28
2023-08-17T19:03:36.769Z,24.22
2023-08-17T19:06:05.107Z,24.15
2023-08-17T19:08:33.451Z,24.08
2023-08-17T19:11:01.504Z,24.03
2023-08-17T19:13:31.557Z,23.98
2023-08-17T19:15:59.663Z,23.93
2023-08-17T19:18:28.041Z,23.92
2023-08-17T19:20:56.228Z,23.86
2023-08-17T19:23:24.517Z,23.85
2023-08-17T19:25:53.125Z,23.84
2023-08-17T19:28:21.138Z,23.81
2023-08-17T19:30:50.500Z,23.74
2023-08-17T19:33:18.595Z,23.68
2023-08-17T19:35:46.744Z,23.62
2023-08-17T19:38:14.831Z,23.57
2023-08-17T19:40:45.972Z,23.53
2023-08-17T19:43:14.214Z,23.48
2023-08-17T19:45:42.445Z,23.40
2023-08-17T19:48:11.920Z,23.35
2023-08-17T19:50:41.533Z,23.28
2023-08-17T19:53:09.659Z,23.19
2023-08-17T19:55:37.911Z,23.17
2023-08-17T19:58:07.170Z,23.12
2023-08-17T20:00:35.551Z,23.09
2023-08-17T20:03:05.397Z,23.04
2023-08-17T20:05:35.256Z,23.03
2023-08-17T20:08:03.673Z,23.00
2023-08-17T20:10:31.834Z,22.99
2023-08-17T20:13:00.196Z,22.97
2023-08-17T20:15:28.446Z,22.93
2023-08-17T20:17:56.729Z,22.87
2023-08-17T20:20:24.835Z,22.83
2023-08-17T20:22:54.887Z,22.82
2023-08-17T20:25:23.942Z,22.75
2023-08-17T20:27:52.725Z,22.75
2023-08-17T20:30:22.697Z,22.69
2023-08-17T20:32:51.047Z,22.68
2023-08-17T20:35:19.384Z,22.64
2023-08-17T20:37:49.583Z,22.61
2023-08-17T20:40:19.176Z,22.55
2023-08-17T20:42:47.831Z,22.49
2023-08-17T20:45:16.232Z,22.49
2023-08-17T20:47:44.487Z,22.46
2023-08-17T20:50:13.392Z,22.42
2023-08-17T20:52:41.856Z,22.38
2023-08-17T20:55:10.506Z,22.37
2023-08-17T20:57:40.783Z,22.37
2023-08-17T21:00:11.044Z,22.35
2023-08-17T21:02:40.099Z,22.32
2023-08-17T21:05:08.749Z,22.31
2023-08-17T21:07:37.019Z,22.29
2023-08-17T21:10:09.756Z,22.31
2023-08-17T21:12:37.900Z,22.31
2023-08-17T21:15:10.358Z,22.31
2023-08-17T21:17:44.480Z,22.38
2023-08-17T21:20:13.412Z,21.84
2023-08-17T21:22:45.461Z,21.15
2023-08-17T21:25:14.394Z,20.67
2023-08-17T21:27:42.419Z,20.41
2023-08-17T22:36:59.127Z,19.58
2023-08-17T22:39:28.084Z,19.58
2023-08-17T22:41:56.164Z,19.57
2023-08-17T22:44:25.134Z,19.53
2023-08-17T22:46:54.105Z,19.50
2023-08-17T22:49:22.488Z,19.50
2023-08-17T22:51:50.964Z,19.53
2023-08-17T22:54:20.765Z,19.53
2023-08-17T22:56:49.244Z,19.47
2023-08-17T22:59:18.370Z,19.47
2023-08-17T23:01:47.022Z,19.44
2023-08-17T23:04:15.463Z,19.43
2023-08-17T23:06:43.699Z,19.44
2023-08-17T23:09:11.825Z,19.40
2023-08-17T23:11:41.745Z,19.41
2023-08-17T23:14:10.573Z,19.40
2023-08-17T23:16:38.934Z,19.43
2023-08-17T23:19:07.285Z,19.43
2023-08-17T23:21:36.537Z,19.47
2023-08-17T23:24:06.309Z,19.47
2023-08-17T23:26:35.648Z,19.45
2023-08-17T23:29:13.357Z,19.44
2023-08-17T23:31:41.612Z,19.45
2023-08-17T23:34:09.732Z,19.40
2023-08-17T23:36:38.769Z,19.41
2023-08-17T23:39:08.554Z,19.40
2023-08-17T23:41:37.253Z,19.37
2023-08-17T23:44:08.110Z,19.36
2023-08-17T23:46:36.462Z,19.40
2023-08-17T23:49:05.571Z,19.41
2023-08-17T23:51:33.941Z,19.40
2023-08-17T23:54:02.184Z,19.34
2023-08-17T23:56:30.592Z,19.33
2023-08-17T23:58:59.403Z,19.34
